sensor_id;sensor_type;location;lat;lon;timestamp;pressure;altitude;pressure_sealevel;temperature
76009;BMP280;64700;52.130;21.270;2023-11-21T00:01:24;99887.34;;;19.13
76009;BMP280;64700;52.130;21.270;2023-11-21T00:03:49;99882.41;;;19.11
76009;BMP280;64700;52.130;21.270;2023-11-21T00:06:15;99876.97;;;19.11
76009;BMP280;64700;52.130;21.270;2023-11-21T00:08:40;99881.66;;;19.11
76009;BMP280;64700;52.130;21.270;2023-11-21T00:11:05;99885.56;;;19.10
76009;BMP280;64700;52.130;21.270;2023-11-21T00:13:33;99887.56;;;19.09
76009;BMP280;64700;52.130;21.270;2023-11-21T00:15:59;99892.22;;;19.09
76009;BMP280;64700;52.130;21.270;2023-11-21T00:18:25;99894.19;;;19.08
76009;BMP280;64700;52.130;21.270;2023-11-21T00:20:50;99890.72;;;19.08
76009;BMP280;64700;52.130;21.270;2023-11-21T00:23:15;99895.09;;;19.05
76009;BMP280;64700;52.130;21.270;2023-11-21T00:25:41;99896.59;;;19.06
76009;BMP280;64700;52.130;21.270;2023-11-21T00:28:06;99900.06;;;19.07
76009;BMP280;64700;52.130;21.270;2023-11-21T00:30:32;99903.22;;;19.05
76009;BMP280;64700;52.130;21.270;2023-11-21T00:32:57;99904.72;;;19.06
76009;BMP280;64700;52.130;21.270;2023-11-21T00:35:22;99900.25;;;19.03
76009;BMP280;64700;52.130;21.270;2023-11-21T00:37:47;99906.41;;;19.04
76009;BMP280;64700;52.130;21.270;2023-11-21T00:40:14;99918.47;;;19.03
76009;BMP280;64700;52.130;21.270;2023-11-21T00:42:40;99913.03;;;19.03
76009;BMP280;64700;52.130;21.270;2023-11-21T00:45:06;99910.03;;;19.01
76009;BMP280;64700;52.130;21.270;2023-11-21T00:47:31;99917.44;;;19.00
76009;BMP280;64700;52.130;21.270;2023-11-21T00:49:56;99919.84;;;18.98
76009;BMP280;64700;52.130;21.270;2023-11-21T00:52:21;99916.66;;;19.00
76009;BMP280;64700;52.130;21.270;2023-11-21T00:54:47;99924.50;;;18.98
76009;BMP280;64700;52.130;21.270;2023-11-21T00:57:13;99930.66;;;18.98
76009;BMP280;64700;52.130;21.270;2023-11-21T00:59:38;99928.72;;;18.99
76009;BMP280;64700;52.130;21.270;2023-11-21T01:02:03;99940.75;;;18.98
76009;BMP280;64700;52.130;21.270;2023-11-21T01:04:29;99942.25;;;18.99
76009;BMP280;64700;52.130;21.270;2023-11-21T01:06:55;99935.34;;;18.98
76009;BMP280;64700;52.130;21.270;2023-11-21T01:09:20;99936.53;;;18.97
76009;BMP280;64700;52.130;21.270;2023-11-21T01:11:45;99933.09;;;18.96
76009;BMP280;64700;52.130;21.270;2023-11-21T01:14:11;99931.59;;;18.95
76009;BMP280;64700;52.130;21.270;2023-11-21T01:16:38;99939.75;;;18.95
76009;BMP280;64700;52.130;21.270;2023-11-21T01:19:03;99939.75;;;18.95
76009;BMP280;64700;52.130;21.270;2023-11-21T01:21:29;99930.84;;;18.95
76009;BMP280;64700;52.130;21.270;2023-11-21T01:23:55;99935.97;;;18.93
76009;BMP280;64700;52.130;21.270;2023-11-21T01:26:20;99935.22;;;18.92
76009;BMP280;64700;52.130;21.270;2023-11-21T01:28:45;99935.22;;;18.92
76009;BMP280;64700;52.130;21.270;2023-11-21T01:31:13;99942.16;;;18.93
76009;BMP280;64700;52.130;21.270;2023-11-21T01:33:39;99941.88;;;18.91
76009;BMP280;64700;52.130;21.270;2023-11-21T01:36:04;99941.88;;;18.91
76009;BMP280;64700;52.130;21.270;2023-11-21T01:38:30;99950.47;;;18.90
76009;BMP280;64700;52.130;21.270;2023-11-21T01:40:57;99943.84;;;18.91
76009;BMP280;64700;52.130;21.270;2023-11-21T01:43:22;99939.63;;;18.90
76009;BMP280;64700;52.130;21.270;2023-11-21T01:45:47;99946.06;;;18.92
76009;BMP280;64700;52.130;21.270;2023-11-21T01:48:12;99945.78;;;18.90
76009;BMP280;64700;52.130;21.270;2023-11-21T01:50:38;99937.69;;;18.90
76009;BMP280;64700;52.130;21.270;2023-11-21T01:53:03;99945.78;;;18.90
76009;BMP280;64700;52.130;21.270;2023-11-21T01:55:28;99953.94;;;18.90
76009;BMP280;64700;52.130;21.270;2023-11-21T01:57:55;99945.78;;;18.90
76009;BMP280;64700;52.130;21.270;2023-11-21T02:00:21;99951.22;;;18.90
76009;BMP280;64700;52.130;21.270;2023-11-21T02:02:48;99951.66;;;18.89
76009;BMP280;64700;52.130;21.270;2023-11-21T02:05:17;99957.09;;;18.89
76009;BMP280;64700;52.130;21.270;2023-11-21T02:07:43;99952.13;;;18.87
76009;BMP280;64700;52.130;21.270;2023-11-21T02:10:09;99954.84;;;18.87
76009;BMP280;64700;52.130;21.270;2023-11-21T02:12:35;99955.59;;;18.88
76009;BMP280;64700;52.130;21.270;2023-11-21T02:15:01;99954.84;;;18.87
76009;BMP280;64700;52.130;21.270;2023-11-21T02:17:27;99956.81;;;18.87
76009;BMP280;64700;52.130;21.270;2023-11-21T02:19:52;99955.31;;;18.85
76009;BMP280;64700;52.130;21.270;2023-11-21T02:22:18;99955.31;;;18.85
76009;BMP280;64700;52.130;21.270;2023-11-21T02:24:45;99957.25;;;18.85
76009;BMP280;64700;52.130;21.270;2023-11-21T02:27:10;99958.44;;;18.84
76009;BMP280;64700;52.130;21.270;2023-11-21T02:29:35;99956.94;;;18.83
76009;BMP280;64700;52.130;21.270;2023-11-21T02:32:01;99962.09;;;18.81
76009;BMP280;64700;52.130;21.270;2023-11-21T02:34:26;99964.06;;;18.80
76009;BMP280;64700;52.130;21.270;2023-11-21T02:36:51;99969.03;;;18.82
76009;BMP280;64700;52.130;21.270;2023-11-21T02:39:17;99972.19;;;18.80
76009;BMP280;64700;52.130;21.270;2023-11-21T02:41:42;99976.84;;;18.80
76009;BMP280;64700;52.130;21.270;2023-11-21T02:44:08;99980.31;;;18.80
76009;BMP280;64700;52.130;21.270;2023-11-21T02:46:34;99970.69;;;18.79
76009;BMP280;64700;52.130;21.270;2023-11-21T02:48:59;99974.88;;;18.80
76009;BMP280;64700;52.130;21.270;2023-11-21T02:51:25;99970.69;;;18.79
76009;BMP280;64700;52.130;21.270;2023-11-21T02:53:50;99963.00;;;18.78
76009;BMP280;64700;52.130;21.270;2023-11-21T02:56:16;99972.81;;;18.75
76009;BMP280;64700;52.130;21.270;2023-11-21T02:58:42;99975.53;;;18.75
76009;BMP280;64700;52.130;21.270;2023-11-21T03:01:08;99980.50;;;18.77
76009;BMP280;64700;52.130;21.270;2023-11-21T03:03:34;99967.84;;;18.74
76009;BMP280;64700;52.130;21.270;2023-11-21T03:05:59;99970.56;;;18.74
76009;BMP280;64700;52.130;21.270;2023-11-21T03:08:25;99980.94;;;18.75
76009;BMP280;64700;52.130;21.270;2023-11-21T03:10:50;99980.66;;;18.73
76009;BMP280;64700;52.130;21.270;2023-11-21T03:13:15;99988.31;;;18.75
76009;BMP280;64700;52.130;21.270;2023-11-21T03:15:40;99975.97;;;18.74
76009;BMP280;64700;52.130;21.270;2023-11-21T03:18:05;99981.41;;;18.74
76009;BMP280;64700;52.130;21.270;2023-11-21T03:20:31;99981.13;;;18.72
76009;BMP280;64700;52.130;21.270;2023-11-21T03:22:56;99985.31;;;18.73
76009;BMP280;64700;52.130;21.270;2023-11-21T03:25:21;99987.28;;;18.72
76009;BMP280;64700;52.130;21.270;2023-11-21T03:27:48;99995.09;;;18.70
76009;BMP280;64700;52.130;21.270;2023-11-21T03:30:14;99990.47;;;18.71
76009;BMP280;64700;52.130;21.270;2023-11-21T03:32:39;99991.97;;;18.72
76009;BMP280;64700;52.130;21.270;2023-11-21T03:35:05;99988.94;;;18.70
76009;BMP280;64700;52.130;21.270;2023-11-21T03:37:30;99997.03;;;18.70
76009;BMP280;64700;52.130;21.270;2023-11-21T03:39:56;100005.66;;;18.68
76009;BMP280;64700;52.130;21.270;2023-11-21T03:42:21;100008.34;;;18.68
76009;BMP280;64700;52.130;21.270;2023-11-21T03:44:46;100003.66;;;18.69
76009;BMP280;64700;52.130;21.270;2023-11-21T03:47:11;100011.06;;;18.68
76009;BMP280;64700;52.130;21.270;2023-11-21T03:49:37;100013.03;;;18.68
76009;BMP280;64700;52.130;21.270;2023-11-21T03:52:02;100024.31;;;18.66
76009;BMP280;64700;52.130;21.270;2023-11-21T03:54:27;100015.44;;;18.66
76009;BMP280;64700;52.130;21.270;2023-11-21T03:56:52;100034.38;;;18.66
76009;BMP280;64700;52.130;21.270;2023-11-21T03:59:18;100031.69;;;18.66
76009;BMP280;64700;52.130;21.270;2023-11-21T04:01:43;100024.75;;;18.65
76009;BMP280;64700;52.130;21.270;2023-11-21T04:04:08;100025.50;;;18.65
76009;BMP280;64700;52.130;21.270;2023-11-21T04:06:33;100027.47;;;18.65
76009;BMP280;64700;52.130;21.270;2023-11-21T04:08:58;100019.81;;;18.63
76009;BMP280;64700;52.130;21.270;2023-11-21T04:11:24;100026.00;;;18.64
76009;BMP280;64700;52.130;21.270;2023-11-21T04:13:49;100024.50;;;18.63
76009;BMP280;64700;52.130;21.270;2023-11-21T04:16:14;100035.78;;;18.61
76009;BMP280;64700;52.130;21.270;2023-11-21T04:18:39;100033.38;;;18.63
76009;BMP280;64700;52.130;21.270;2023-11-21T04:21:05;100024.75;;;18.65
76009;BMP280;64700;52.130;21.270;2023-11-21T04:23:30;100036.66;;;18.67
76009;BMP280;64700;52.130;21.270;2023-11-21T04:25:57;100035.31;;;18.63
76009;BMP280;64700;52.130;21.270;2023-11-21T04:28:23;100034.56;;;18.62
76009;BMP280;64700;52.130;21.270;2023-11-21T04:30:49;100038.47;;;18.61
76009;BMP280;64700;52.130;21.270;2023-11-21T04:33:14;100040.16;;;18.59
76009;BMP280;64700;52.130;21.270;2023-11-21T04:35:39;100038.94;;;18.60
76009;BMP280;64700;52.130;21.270;2023-11-21T04:38:04;100041.19;;;18.61
76009;BMP280;64700;52.130;21.270;2023-11-21T04:40:29;100049.00;;;18.59
76009;BMP280;64700;52.130;21.270;2023-11-21T04:42:55;100050.25;;;18.58
76009;BMP280;64700;52.130;21.270;2023-11-21T04:45:21;100052.19;;;18.58
76009;BMP280;64700;52.130;21.270;2023-11-21T04:47:47;100054.41;;;18.59
76009;BMP280;64700;52.130;21.270;2023-11-21T04:50:12;100052.00;;;18.61
76009;BMP280;64700;52.130;21.270;2023-11-21T04:52:37;100047.06;;;18.60
76009;BMP280;64700;52.130;21.270;2023-11-21T04:55:02;100048.84;;;18.63
76009;BMP280;64700;52.130;21.270;2023-11-21T04:57:28;100055.28;;;18.65
76009;BMP280;64700;52.130;21.270;2023-11-21T04:59:53;100056.06;;;18.66
76009;BMP280;64700;52.130;21.270;2023-11-21T05:02:18;100050.63;;;18.66
76009;BMP280;64700;52.130;21.270;2023-11-21T05:04:44;100049.72;;;18.69
76009;BMP280;64700;52.130;21.270;2023-11-21T05:07:09;100051.97;;;18.70
76009;BMP280;64700;52.130;21.270;2023-11-21T05:09:34;100044.16;;;18.72
76009;BMP280;64700;52.130;21.270;2023-11-21T05:12:00;100051.06;;;18.73
76009;BMP280;64700;52.130;21.270;2023-11-21T05:14:25;100065.66;;;18.76
76009;BMP280;64700;52.130;21.270;2023-11-21T05:16:51;100068.63;;;18.78
76009;BMP280;64700;52.130;21.270;2023-11-21T05:19:16;100065.47;;;18.79
76009;BMP280;64700;52.130;21.270;2023-11-21T05:21:42;100068.47;;;18.81
76009;BMP280;64700;52.130;21.270;2023-11-21T05:24:07;100077.63;;;18.84
76009;BMP280;64700;52.130;21.270;2023-11-21T05:26:32;100086.09;;;18.86
76009;BMP280;64700;52.130;21.270;2023-11-21T05:28:57;100089.81;;;18.89
76009;BMP280;64700;52.130;21.270;2023-11-21T05:31:22;100088.44;;;18.93
76009;BMP280;64700;52.130;21.270;2023-11-21T05:33:48;100098.81;;;18.95
76009;BMP280;64700;52.130;21.270;2023-11-21T05:36:13;100093.69;;;18.97
76009;BMP280;64700;52.130;21.270;2023-11-21T05:38:38;100098.66;;;18.98
76009;BMP280;64700;52.130;21.270;2023-11-21T05:41:03;100097.75;;;19.01
76009;BMP280;64700;52.130;21.270;2023-11-21T05:43:29;100103.28;;;19.07
76009;BMP280;64700;52.130;21.270;2023-11-21T05:45:55;100098.63;;;19.07
76009;BMP280;64700;52.130;21.270;2023-11-21T05:48:21;100106.56;;;19.11
76009;BMP280;64700;52.130;21.270;2023-11-21T05:50:46;100110.78;;;19.12
76009;BMP280;64700;52.130;21.270;2023-11-21T05:53:12;100120.69;;;19.15
76009;BMP280;64700;52.130;21.270;2023-11-21T05:55:40;100113.16;;;19.19
76009;BMP280;64700;52.130;21.270;2023-11-21T05:58:06;100118.13;;;19.20
76009;BMP280;64700;52.130;21.270;2023-11-21T06:00:33;100115.97;;;19.24
76009;BMP280;64700;52.130;21.270;2023-11-21T06:02:58;100119.91;;;19.23
76009;BMP280;64700;52.130;21.270;2023-11-21T06:05:24;100131.31;;;19.27
76009;BMP280;64700;52.130;21.270;2023-11-21T06:07:49;100129.34;;;19.28
76009;BMP280;64700;52.130;21.270;2023-11-21T06:10:14;100138.81;;;19.33
76009;BMP280;64700;52.130;21.270;2023-11-21T06:12:40;100133.53;;;19.38
76009;BMP280;64700;52.130;21.270;2023-11-21T06:15:08;100125.84;;;19.37
76009;BMP280;64700;52.130;21.270;2023-11-21T06:17:34;100130.06;;;19.38
76009;BMP280;64700;52.130;21.270;2023-11-21T06:20:03;100131.25;;;19.37
76009;BMP280;64700;52.130;21.270;2023-11-21T06:22:37;100131.00;;;19.35
76009;BMP280;64700;52.130;21.270;2023-11-21T06:25:03;100134.16;;;19.33
76009;BMP280;64700;52.130;21.270;2023-11-21T06:27:33;100139.13;;;19.35
76009;BMP280;64700;52.130;21.270;2023-11-21T06:29:59;100141.09;;;19.34
76009;BMP280;64700;52.130;21.270;2023-11-21T06:32:24;100145.50;;;19.32
76009;BMP280;64700;52.130;21.270;2023-11-21T06:34:49;100155.09;;;19.33
76009;BMP280;64700;52.130;21.270;2023-11-21T06:37:14;100160.53;;;19.33
76009;BMP280;64700;52.130;21.270;2023-11-21T06:39:40;100155.84;;;19.33
76009;BMP280;64700;52.130;21.270;2023-11-21T06:42:05;100165.94;;;19.33
76009;BMP280;64700;52.130;21.270;2023-11-21T06:44:30;100167.44;;;19.34
76009;BMP280;64700;52.130;21.270;2023-11-21T06:46:56;100165.66;;;19.31
76009;BMP280;64700;52.130;21.270;2023-11-21T06:49:21;100171.97;;;19.27
76009;BMP280;64700;52.130;21.270;2023-11-21T06:51:46;100176.03;;;19.32
76009;BMP280;64700;52.130;21.270;2023-11-21T06:54:11;100179.97;;;19.31
76009;BMP280;64700;52.130;21.270;2023-11-21T06:56:37;100174.97;;;19.30
76009;BMP280;64700;52.130;21.270;2023-11-21T06:59:03;100178.91;;;19.28
76009;BMP280;64700;52.130;21.270;2023-11-21T07:01:30;100181.59;;;19.28
76009;BMP280;64700;52.130;21.270;2023-11-21T07:03:58;100188.97;;;19.28
76009;BMP280;64700;52.130;21.270;2023-11-21T07:06:23;100186.44;;;19.24
76009;BMP280;64700;52.130;21.270;2023-11-21T07:08:48;100190.22;;;19.27
76009;BMP280;64700;52.130;21.270;2023-11-21T07:11:13;100201.06;;;19.27
76009;BMP280;64700;52.130;21.270;2023-11-21T07:13:38;100189.66;;;19.23
76009;BMP280;64700;52.130;21.270;2023-11-21T07:16:04;100191.41;;;19.26
76009;BMP280;64700;52.130;21.270;2023-11-21T07:18:29;100194.13;;;19.26
76009;BMP280;64700;52.130;21.270;2023-11-21T07:20:54;100190.09;;;19.21
76009;BMP280;64700;52.130;21.270;2023-11-21T07:23:19;100199.88;;;19.19
76009;BMP280;64700;52.130;21.270;2023-11-21T07:25:46;100194.00;;;19.20
76009;BMP280;64700;52.130;21.270;2023-11-21T07:28:12;100196.84;;;19.26
76009;BMP280;64700;52.130;21.270;2023-11-21T07:30:37;100207.50;;;19.30
76009;BMP280;64700;52.130;21.270;2023-11-21T07:33:02;100208.13;;;19.24
76009;BMP280;64700;52.130;21.270;2023-11-21T07:35:28;100208.63;;;19.23
76009;BMP280;64700;52.130;21.270;2023-11-21T07:37:53;100209.34;;;19.23
76009;BMP280;64700;52.130;21.270;2023-11-21T07:40:18;100208.31;;;19.21
76009;BMP280;64700;52.130;21.270;2023-11-21T07:42:43;100209.81;;;19.22
76009;BMP280;64700;52.130;21.270;2023-11-21T07:45:08;100205.31;;;19.19
76009;BMP280;64700;52.130;21.270;2023-11-21T07:47:34;100211.03;;;19.21
76009;BMP280;64700;52.130;21.270;2023-11-21T07:49:59;100209.53;;;19.20
76009;BMP280;64700;52.130;21.270;2023-11-21T07:52:24;100213.72;;;19.21
76009;BMP280;64700;52.130;21.270;2023-11-21T07:54:50;100206.81;;;19.20
76009;BMP280;64700;52.130;21.270;2023-11-21T07:57:15;100208.75;;;19.19
76009;BMP280;64700;52.130;21.270;2023-11-21T07:59:41;100206.81;;;19.20
76009;BMP280;64700;52.130;21.270;2023-11-21T08:02:06;100213.44;;;19.19
76009;BMP280;64700;52.130;21.270;2023-11-21T08:04:31;100212.41;;;19.16
76009;BMP280;64700;52.130;21.270;2023-11-21T08:06:57;100212.41;;;19.16
76009;BMP280;64700;52.130;21.270;2023-11-21T08:09:22;100223.66;;;19.15
76009;BMP280;64700;52.130;21.270;2023-11-21T08:11:48;100211.34;;;19.14
76009;BMP280;64700;52.130;21.270;2023-11-21T08:14:13;100221.75;;;19.15
76009;BMP280;64700;52.130;21.270;2023-11-21T08:16:39;100228.34;;;19.14
76009;BMP280;64700;52.130;21.270;2023-11-21T08:19:05;100228.06;;;19.12
76009;BMP280;64700;52.130;21.270;2023-11-21T08:21:31;100238.44;;;19.14
76009;BMP280;64700;52.130;21.270;2023-11-21T08:23:56;100236.94;;;19.13
76009;BMP280;64700;52.130;21.270;2023-11-21T08:26:21;100226.09;;;19.13
76009;BMP280;64700;52.130;21.270;2023-11-21T08:28:47;100240.09;;;19.11
76009;BMP280;64700;52.130;21.270;2023-11-21T08:31:12;100242.06;;;19.11
76009;BMP280;64700;52.130;21.270;2023-11-21T08:33:38;100244.03;;;19.10
76009;BMP280;64700;52.130;21.270;2023-11-21T08:36:06;100249.00;;;19.12
76009;BMP280;64700;52.130;21.270;2023-11-21T08:38:31;100243.56;;;19.12
76009;BMP280;64700;52.130;21.270;2023-11-21T08:40:57;100247.97;;;19.09
76009;BMP280;64700;52.130;21.270;2023-11-21T08:43:22;100257.56;;;19.10
76009;BMP280;64700;52.130;21.270;2023-11-21T08:45:49;100250.66;;;19.09
76009;BMP280;64700;52.130;21.270;2023-11-21T08:48:14;100260.75;;;19.09
76009;BMP280;64700;52.130;21.270;2023-11-21T08:50:39;100255.34;;;19.09
76009;BMP280;64700;52.130;21.270;2023-11-21T08:53:04;100259.25;;;19.08
76009;BMP280;64700;52.130;21.270;2023-11-21T08:55:30;100265.88;;;19.07
76009;BMP280;64700;52.130;21.270;2023-11-21T08:57:55;100266.63;;;19.07
76009;BMP280;64700;52.130;21.270;2023-11-21T09:00:21;100260.91;;;19.05
76009;BMP280;64700;52.130;21.270;2023-11-21T09:02:47;100257.75;;;19.07
76009;BMP280;64700;52.130;21.270;2023-11-21T09:05:12;100266.31;;;19.05
76009;BMP280;64700;52.130;21.270;2023-11-21T09:07:38;100262.13;;;19.04
76009;BMP280;64700;52.130;21.270;2023-11-21T09:10:04;100267.06;;;19.06
76009;BMP280;64700;52.130;21.270;2023-11-21T09:12:32;100272.50;;;19.06
76009;BMP280;64700;52.130;21.270;2023-11-21T09:14:58;100271.75;;;19.05
76009;BMP280;64700;52.130;21.270;2023-11-21T09:17:23;100272.22;;;19.04
76009;BMP280;64700;52.130;21.270;2023-11-21T09:19:49;100272.97;;;19.04
76009;BMP280;64700;52.130;21.270;2023-11-21T09:22:16;100267.56;;;19.04
76009;BMP280;64700;52.130;21.270;2023-11-21T09:24:42;100275.69;;;19.04
76009;BMP280;64700;52.130;21.270;2023-11-21T09:27:07;100274.16;;;19.03
76009;BMP280;64700;52.130;21.270;2023-11-21T09:29:32;100278.84;;;19.03
76009;BMP280;64700;52.130;21.270;2023-11-21T09:31:57;100287.41;;;19.01
76009;BMP280;64700;52.130;21.270;2023-11-21T09:34:26;100290.88;;;19.02
76009;BMP280;64700;52.130;21.270;2023-11-21T09:36:51;100290.13;;;19.01
76009;BMP280;64700;52.130;21.270;2023-11-21T09:39:16;100290.56;;;19.00
76009;BMP280;64700;52.130;21.270;2023-11-21T09:41:48;100279.28;;;19.01
76009;BMP280;64700;52.130;21.270;2023-11-21T09:44:16;100286.53;;;19.04
76009;BMP280;64700;52.130;21.270;2023-11-21T09:46:42;100294.94;;;19.06
76009;BMP280;64700;52.130;21.270;2023-11-21T09:49:11;100295.69;;;19.07
76009;BMP280;64700;52.130;21.270;2023-11-21T09:51:38;100279.41;;;19.07
76009;BMP280;64700;52.130;21.270;2023-11-21T09:54:05;100284.09;;;19.06
76009;BMP280;64700;52.130;21.270;2023-11-21T09:56:32;100292.53;;;19.08
76009;BMP280;64700;52.130;21.270;2023-11-21T09:58:57;100290.84;;;19.11
76009;BMP280;64700;52.130;21.270;2023-11-21T10:01:23;100286.19;;;19.11
76009;BMP280;64700;52.130;21.270;2023-11-21T10:03:50;100294.03;;;19.09
76009;BMP280;64700;52.130;21.270;2023-11-21T10:06:15;100297.94;;;19.08
76009;BMP280;64700;52.130;21.270;2023-11-21T10:08:42;100300.34;;;19.06
76009;BMP280;64700;52.130;21.270;2023-11-21T10:11:07;100295.69;;;19.07
76009;BMP280;64700;52.130;21.270;2023-11-21T10:13:36;100296.88;;;19.06
76009;BMP280;64700;52.130;21.270;2023-11-21T10:16:02;100292.53;;;19.08
76009;BMP280;64700;52.130;21.270;2023-11-21T10:18:30;100303.34;;;19.08
76009;BMP280;64700;52.130;21.270;2023-11-21T10:20:59;100307.59;;;19.09
76009;BMP280;64700;52.130;21.270;2023-11-21T10:23:24;100304.88;;;19.09
76009;BMP280;64700;52.130;21.270;2023-11-21T10:25:50;100306.81;;;19.09
76009;BMP280;64700;52.130;21.270;2023-11-21T10:28:16;100305.31;;;19.08
76009;BMP280;64700;52.130;21.270;2023-11-21T10:30:42;100308.03;;;19.08
76009;BMP280;64700;52.130;21.270;2023-11-21T10:33:07;100303.34;;;19.08
76009;BMP280;64700;52.130;21.270;2023-11-21T10:38:07;100311.00;;;19.10
76009;BMP280;64700;52.130;21.270;2023-11-21T10:40:37;100306.81;;;19.09
76009;BMP280;64700;52.130;21.270;2023-11-21T10:43:07;100308.78;;;19.08
76009;BMP280;64700;52.130;21.270;2023-11-21T10:45:34;100313.44;;;19.08
76009;BMP280;64700;52.130;21.270;2023-11-21T10:47:59;100314.19;;;19.08
76009;BMP280;64700;52.130;21.270;2023-11-21T10:50:25;100306.81;;;19.09
76009;BMP280;64700;52.130;21.270;2023-11-21T10:52:50;100312.69;;;19.07
76009;BMP280;64700;52.130;21.270;2023-11-21T10:55:19;100315.41;;;19.07
76009;BMP280;64700;52.130;21.270;2023-11-21T10:57:51;100313.91;;;19.06
76009;BMP280;64700;52.130;21.270;2023-11-21T11:00:17;100318.88;;;19.08
76009;BMP280;64700;52.130;21.270;2023-11-21T11:02:46;100316.91;;;19.08
76009;BMP280;64700;52.130;21.270;2023-11-21T11:05:12;100318.13;;;19.07
76009;BMP280;64700;52.130;21.270;2023-11-21T11:07:38;100319.31;;;19.06
76009;BMP280;64700;52.130;21.270;2023-11-21T11:10:06;100317.38;;;19.07
76009;BMP280;64700;52.130;21.270;2023-11-21T11:12:33;100316.59;;;19.06
76009;BMP280;64700;52.130;21.270;2023-11-21T11:14:59;100315.41;;;19.07
76009;BMP280;64700;52.130;21.270;2023-11-21T11:17:25;100318.13;;;19.07
76009;BMP280;64700;52.130;21.270;2023-11-21T11:19:51;100320.38;;;19.09
76009;BMP280;64700;52.130;21.270;2023-11-21T11:34:48;100330.28;;;19.12
76009;BMP280;64700;52.130;21.270;2023-11-21T11:37:15;100334.19;;;19.11
76009;BMP280;64700;52.130;21.270;2023-11-21T11:39:41;100331.97;;;19.09
76009;BMP280;64700;52.130;21.270;2023-11-21T11:42:08;100326.25;;;19.07
76009;BMP280;64700;52.130;21.270;2023-11-21T11:47:15;100335.56;;;19.06
76009;BMP280;64700;52.130;21.270;2023-11-21T11:52:34;100337.09;;;19.07
76009;BMP280;64700;52.130;21.270;2023-11-21T11:55:00;100337.84;;;19.08
76009;BMP280;64700;52.130;21.270;2023-11-21T11:57:26;100341.75;;;19.07
76009;BMP280;64700;52.130;21.270;2023-11-21T12:02:41;100343.72;;;19.06
76009;BMP280;64700;52.130;21.270;2023-11-21T12:05:09;100349.13;;;19.06
76009;BMP280;64700;52.130;21.270;2023-11-21T12:07:47;100355.31;;;19.07
76009;BMP280;64700;52.130;21.270;2023-11-21T12:10:16;100354.09;;;19.08
76009;BMP280;64700;52.130;21.270;2023-11-21T12:12:49;100347.63;;;19.05
76009;BMP280;64700;52.130;21.270;2023-11-21T12:15:14;100347.91;;;19.07
76009;BMP280;64700;52.130;21.270;2023-11-21T12:17:40;100350.31;;;19.05
76009;BMP280;64700;52.130;21.270;2023-11-21T12:20:06;100358.47;;;19.05
76009;BMP280;64700;52.130;21.270;2023-11-21T12:22:39;100359.22;;;19.06
76009;BMP280;64700;52.130;21.270;2023-11-21T12:25:05;100355.03;;;19.05
76009;BMP280;64700;52.130;21.270;2023-11-21T12:27:31;100360.88;;;19.03
76009;BMP280;64700;52.130;21.270;2023-11-21T12:29:57;100358.63;;;19.02
76009;BMP280;64700;52.130;21.270;2023-11-21T12:32:22;100362.84;;;19.03
76009;BMP280;64700;52.130;21.270;2023-11-21T12:34:47;100355.91;;;19.02
76009;BMP280;64700;52.130;21.270;2023-11-21T12:37:15;100360.56;;;19.01
76009;BMP280;64700;52.130;21.270;2023-11-21T12:39:42;100362.53;;;19.01
76009;BMP280;64700;52.130;21.270;2023-11-21T12:42:07;100364.50;;;19.00
76009;BMP280;64700;52.130;21.270;2023-11-21T12:44:32;100366.44;;;19.00
76009;BMP280;64700;52.130;21.270;2023-11-21T12:46:57;100375.34;;;19.00
76009;BMP280;64700;52.130;21.270;2023-11-21T12:49:24;100369.59;;;18.98
76009;BMP280;64700;52.130;21.270;2023-11-21T12:51:49;100384.66;;;18.99
76009;BMP280;64700;52.130;21.270;2023-11-21T12:54:15;100370.34;;;18.99
76009;BMP280;64700;52.130;21.270;2023-11-21T12:56:40;100386.63;;;18.99
76009;BMP280;64700;52.130;21.270;2023-11-21T12:59:06;100381.19;;;18.99
76009;BMP280;64700;52.130;21.270;2023-11-21T13:01:31;100381.63;;;18.97
76009;BMP280;64700;52.130;21.270;2023-11-21T13:03:59;100378.94;;;18.97
76009;BMP280;64700;52.130;21.270;2023-11-21T13:06:24;100387.81;;;18.98
76009;BMP280;64700;52.130;21.270;2023-11-21T13:08:51;100393.69;;;18.96
76009;BMP280;64700;52.130;21.270;2023-11-21T13:11:16;100389.47;;;18.95
76009;BMP280;64700;52.130;21.270;2023-11-21T13:13:43;100389.94;;;18.94
76009;BMP280;64700;52.130;21.270;2023-11-21T13:16:11;100395.03;;;18.92
76009;BMP280;64700;52.130;21.270;2023-11-21T13:18:36;100396.53;;;18.93
76009;BMP280;64700;52.130;21.270;2023-11-21T13:21:04;100404.84;;;18.89
76009;BMP280;64700;52.130;21.270;2023-11-21T13:23:35;100399.41;;;18.89
76009;BMP280;64700;52.130;21.270;2023-11-21T13:26:01;100402.88;;;18.90
76009;BMP280;64700;52.130;21.270;2023-11-21T13:28:29;100409.22;;;18.87
76009;BMP280;64700;52.130;21.270;2023-11-21T13:30:57;100418.53;;;18.85
76009;BMP280;64700;52.130;21.270;2023-11-21T13:33:27;100416.59;;;18.86
76009;BMP280;64700;52.130;21.270;2023-11-21T13:35:53;100427.09;;;18.84
76009;BMP280;64700;52.130;21.270;2023-11-21T13:38:21;100420.63;;;18.81
76009;BMP280;64700;52.130;21.270;2023-11-21T13:40:52;100424.53;;;18.80
76009;BMP280;64700;52.130;21.270;2023-11-21T13:43:23;100421.38;;;18.82
76009;BMP280;64700;52.130;21.270;2023-11-21T13:45:49;100430.72;;;18.81
76009;BMP280;64700;52.130;21.270;2023-11-21T13:48:26;100431.16;;;18.79
76009;BMP280;64700;52.130;21.270;2023-11-21T13:50:59;100431.59;;;18.78
76009;BMP280;64700;52.130;21.270;2023-11-21T13:53:28;100436.28;;;18.77
76009;BMP280;64700;52.130;21.270;2023-11-21T13:55:54;100442.91;;;18.76
76009;BMP280;64700;52.130;21.270;2023-11-21T13:58:20;100450.28;;;18.76
76009;BMP280;64700;52.130;21.270;2023-11-21T14:00:49;100454.94;;;18.75
76009;BMP280;64700;52.130;21.270;2023-11-21T14:03:21;100461.53;;;18.74